sensor_id;sensor_type;location;lat;lon;timestamp;pressure;altitude;pressure_sealevel;temperature;humidity
8039;BME280;4062;49.844;8.120;2023-06-24T00:00:43;100150.97;;;19.41;60.44
8039;BME280;4062;49.844;8.120;2023-06-24T00:02:44;100147.44;;;19.40;60.51
8039;BME280;4062;49.844;8.120;2023-06-24T00:04:46;100156.34;;;19.41;60.29
8039;BME280;4062;49.844;8.120;2023-06-24T00:06:48;100153.66;;;19.41;60.19
8039;BME280;4062;49.844;8.120;2023-06-24T00:08:50;100157.28;;;19.40;60.27
8039;BME280;4062;49.844;8.120;2023-06-24T00:10:51;100157.28;;;19.40;60.42
8039;BME280;4062;49.844;8.120;2023-06-24T00:12:52;100164.38;;;19.41;60.50
8039;BME280;4062;49.844;8.120;2023-06-24T00:14:54;100161.69;;;19.41;60.34
8039;BME280;4062;49.844;8.120;2023-06-24T00:16:55;100160.84;;;19.40;60.46
8039;BME280;4062;49.844;8.120;2023-06-24T00:18:57;100163.53;;;19.40;60.43
8039;BME280;4062;49.844;8.120;2023-06-24T00:20:59;100166.22;;;19.40;60.16
8039;BME280;4062;49.844;8.120;2023-06-24T00:23:02;100162.59;;;19.41;60.38
8039;BME280;4062;49.844;8.120;2023-06-24T00:25:04;100156.34;;;19.41;60.59
8039;BME280;4062;49.844;8.120;2023-06-24T00:27:06;100157.22;;;19.41;60.41
8039;BME280;4062;49.844;8.120;2023-06-24T00:29:08;100154.59;;;19.40;60.49
8039;BME280;4062;49.844;8.120;2023-06-24T00:31:09;100159.03;;;19.41;60.64
8039;BME280;4062;49.844;8.120;2023-06-24T00:33:12;100155.50;;;19.40;60.24
8039;BME280;4062;49.844;8.120;2023-06-24T00:35:14;100160.84;;;19.40;60.48
8039;BME280;4062;49.844;8.120;2023-06-24T00:37:16;100157.28;;;19.40;60.42
8039;BME280;4062;49.844;8.120;2023-06-24T00:39:18;100155.50;;;19.40;60.61
8039;BME280;4062;49.844;8.120;2023-06-24T00:41:20;100162.66;;;19.40;60.20
8039;BME280;4062;49.844;8.120;2023-06-24T00:43:21;100150.97;;;19.41;60.20
8039;BME280;4062;49.844;8.120;2023-06-24T00:45:23;100159.03;;;19.41;60.50
8039;BME280;4062;49.844;8.120;2023-06-24T00:47:25;100153.66;;;19.41;60.16
8039;BME280;4062;49.844;8.120;2023-06-24T00:49:32;100156.34;;;19.41;60.29
8039;BME280;4062;49.844;8.120;2023-06-24T00:51:33;100155.50;;;19.40;60.56
8039;BME280;4062;49.844;8.120;2023-06-24T00:53:37;100149.19;;;19.41;60.63
8039;BME280;4062;49.844;8.120;2023-06-24T00:55:42;100153.66;;;19.41;60.33
8039;BME280;4062;49.844;8.120;2023-06-24T00:57:44;100156.34;;;19.41;60.29
8039;BME280;4062;49.844;8.120;2023-06-24T00:59:49;100158.16;;;19.40;60.42
8039;BME280;4062;49.844;8.120;2023-06-24T01:01:54;100155.50;;;19.40;60.18
8039;BME280;4062;49.844;8.120;2023-06-24T01:03:56;100157.28;;;19.40;60.48
8039;BME280;4062;49.844;8.120;2023-06-24T01:05:57;100154.59;;;19.40;60.71
8039;BME280;4062;49.844;8.120;2023-06-24T01:07:59;100154.59;;;19.40;60.49
8039;BME280;4062;49.844;8.120;2023-06-24T01:10:01;100148.41;;;19.39;60.18
8039;BME280;4062;49.844;8.120;2023-06-24T01:12:03;100149.25;;;19.40;60.13
8039;BME280;4062;49.844;8.120;2023-06-24T01:14:08;100154.59;;;19.40;60.50
8039;BME280;4062;49.844;8.120;2023-06-24T01:16:16;100152.81;;;19.40;60.21
8039;BME280;4062;49.844;8.120;2023-06-24T01:18:46;100157.28;;;19.40;60.42
8039;BME280;4062;49.844;8.120;2023-06-24T01:20:55;100157.28;;;19.40;60.61
8039;BME280;4062;49.844;8.120;2023-06-24T01:27:45;100161.78;;;19.39;60.23
8039;BME280;4062;49.844;8.120;2023-06-24T01:32:32;100162.66;;;19.40;60.64
8039;BME280;4062;49.844;8.120;2023-06-24T01:34:41;100164.47;;;19.39;60.30
8039;BME280;4062;49.844;8.120;2023-06-24T01:39:02;100168.00;;;19.40;60.55
8039;BME280;4062;49.844;8.120;2023-06-24T01:41:06;100170.69;;;19.40;60.30
8039;BME280;4062;49.844;8.120;2023-06-24T01:43:10;100166.25;;;19.38;60.20
8039;BME280;4062;49.844;8.120;2023-06-24T01:45:14;100172.50;;;19.39;60.47
8039;BME280;4062;49.844;8.120;2023-06-24T01:47:21;100164.47;;;19.39;60.51
8039;BME280;4062;49.844;8.120;2023-06-24T01:49:24;100173.44;;;19.38;60.53
8039;BME280;4062;49.844;8.120;2023-06-24T01:51:30;100176.94;;;19.40;60.45
8039;BME280;4062;49.844;8.120;2023-06-24T01:53:35;100172.50;;;19.39;60.33
8039;BME280;4062;49.844;8.120;2023-06-24T01:55:42;100173.34;;;19.40;60.37
8039;BME280;4062;49.844;8.120;2023-06-24T01:57:45;100173.34;;;19.40;60.48
8039;BME280;4062;49.844;8.120;2023-06-24T01:59:50;100174.31;;;19.38;60.24
8039;BME280;4062;49.844;8.120;2023-06-24T02:01:53;100178.81;;;19.38;60.34
8039;BME280;4062;49.844;8.120;2023-06-24T02:03:56;100175.19;;;19.39;60.49
8039;BME280;4062;49.844;8.120;2023-06-24T02:05:59;100175.19;;;19.39;60.23
8039;BME280;4062;49.844;8.120;2023-06-24T02:08:02;100174.31;;;19.38;60.27
8039;BME280;4062;49.844;8.120;2023-06-24T02:10:05;100177.88;;;19.39;60.34
8039;BME280;4062;49.844;8.120;2023-06-24T02:12:09;100179.66;;;19.38;60.38
8039;BME280;4062;49.844;8.120;2023-06-24T02:14:19;100174.31;;;19.38;60.46
8039;BME280;4062;49.844;8.120;2023-06-24T02:16:22;100180.53;;;19.39;60.47
8039;BME280;4062;49.844;8.120;2023-06-24T02:18:25;100175.19;;;19.39;60.46
8039;BME280;4062;49.844;8.120;2023-06-24T02:20:31;100176.97;;;19.38;60.20
8039;BME280;4062;49.844;8.120;2023-06-24T02:22:34;100176.03;;;19.40;60.46
8039;BME280;4062;49.844;8.120;2023-06-24T02:24:37;100174.31;;;19.38;60.37
8039;BME280;4062;49.844;8.120;2023-06-24T02:26:39;100174.31;;;19.38;60.56
8039;BME280;4062;49.844;8.120;2023-06-24T02:28:43;100176.97;;;19.38;60.53
8039;BME280;4062;49.844;8.120;2023-06-24T02:30:46;100173.44;;;19.38;60.14
8039;BME280;4062;49.844;8.120;2023-06-24T02:32:57;100175.19;;;19.39;60.37
8039;BME280;4062;49.844;8.120;2023-06-24T02:34:58;100174.31;;;19.38;60.53
8039;BME280;4062;49.844;8.120;2023-06-24T02:37:09;100174.31;;;19.38;60.40
8039;BME280;4062;49.844;8.120;2023-06-24T02:39:19;100166.25;;;19.38;60.34
8039;BME280;4062;49.844;8.120;2023-06-24T02:41:25;100168.94;;;19.38;60.15
8039;BME280;4062;49.844;8.120;2023-06-24T02:43:36;100166.25;;;19.38;60.50
8039;BME280;4062;49.844;8.120;2023-06-24T02:45:44;100162.72;;;19.38;60.39
8039;BME280;4062;49.844;8.120;2023-06-24T02:47:56;100157.38;;;19.38;60.16
8039;BME280;4062;49.844;8.120;2023-06-24T02:50:14;100166.25;;;19.38;60.27
8039;BME280;4062;49.844;8.120;2023-06-24T02:52:23;100171.63;;;19.38;60.28
8039;BME280;4062;49.844;8.120;2023-06-24T02:54:27;100169.81;;;19.39;60.28
8039;BME280;4062;49.844;8.120;2023-06-24T02:57:03;100181.41;;;19.40;60.61
8039;BME280;4062;49.844;8.120;2023-06-24T03:00:07;100177.88;;;19.39;60.47
8039;BME280;4062;49.844;8.120;2023-06-24T03:03:01;100174.31;;;19.38;60.39
8039;BME280;4062;49.844;8.120;2023-06-24T03:05:17;100174.31;;;19.38;60.49
8039;BME280;4062;49.844;8.120;2023-06-24T03:07:38;100176.13;;;19.38;60.64
8039;BME280;4062;49.844;8.120;2023-06-24T03:10:50;100174.31;;;19.38;60.50
8039;BME280;4062;49.844;8.120;2023-06-24T03:13:26;100168.09;;;19.38;60.23
8039;BME280;4062;49.844;8.120;2023-06-24T03:16:17;100170.78;;;19.38;60.27
8039;BME280;4062;49.844;8.120;2023-06-24T03:18:56;100178.81;;;19.38;60.38
8039;BME280;4062;49.844;8.120;2023-06-24T03:21:24;100176.97;;;19.38;60.63
8039;BME280;4062;49.844;8.120;2023-06-24T03:24:09;100175.28;;;19.37;60.37
8039;BME280;4062;49.844;8.120;2023-06-24T03:26:55;100182.34;;;19.38;60.39
8039;BME280;4062;49.844;8.120;2023-06-24T03:29:16;100170.78;;;19.38;60.47
8039;BME280;4062;49.844;8.120;2023-06-24T03:32:14;100168.09;;;19.38;60.48
8039;BME280;4062;49.844;8.120;2023-06-24T03:34:47;100165.41;;;19.38;60.44
8039;BME280;4062;49.844;8.120;2023-06-24T03:36:53;100170.78;;;19.38;60.54
8039;BME280;4062;49.844;8.120;2023-06-24T03:39:05;100173.44;;;19.38;60.46
8039;BME280;4062;49.844;8.120;2023-06-24T03:41:11;100183.31;;;19.37;60.40
8039;BME280;4062;49.844;8.120;2023-06-24T03:43:16;100181.47;;;19.38;60.44
8039;BME280;4062;49.844;8.120;2023-06-24T03:45:26;100176.13;;;19.38;60.27
8039;BME280;4062;49.844;8.120;2023-06-24T03:47:38;100186.00;;;19.37;60.23
8039;BME280;4062;49.844;8.120;2023-06-24T03:50:08;100185.03;;;19.38;60.50
8039;BME280;4062;49.844;8.120;2023-06-24T03:52:19;100186.00;;;19.37;60.47
8039;BME280;4062;49.844;8.120;2023-06-24T03:54:26;100180.63;;;19.37;60.54
8039;BME280;4062;49.844;8.120;2023-06-24T03:56:45;100186.84;;;19.38;60.22
8039;BME280;4062;49.844;8.120;2023-06-24T03:59:09;100189.53;;;19.38;60.42
8039;BME280;4062;49.844;8.120;2023-06-24T04:01:14;100186.84;;;19.38;60.58
8039;BME280;4062;49.844;8.120;2023-06-24T04:03:19;100184.25;;;19.36;60.38
8039;BME280;4062;49.844;8.120;2023-06-24T04:05:36;100188.59;;;19.39;60.27
8039;BME280;4062;49.844;8.120;2023-06-24T04:07:47;100190.38;;;19.38;60.43
8039;BME280;4062;49.844;8.120;2023-06-24T04:09:59;100194.88;;;19.38;60.44
8039;BME280;4062;49.844;8.120;2023-06-24T04:12:10;100196.72;;;19.37;60.22
8039;BME280;4062;49.844;8.120;2023-06-24T04:14:25;100194.03;;;19.37;60.39
8039;BME280;4062;49.844;8.120;2023-06-24T04:16:53;100198.41;;;19.38;60.69
8039;BME280;4062;49.844;8.120;2023-06-24T04:19:44;100196.72;;;19.37;60.37
8039;BME280;4062;49.844;8.120;2023-06-24T04:22:16;100197.56;;;19.38;60.53
8039;BME280;4062;49.844;8.120;2023-06-24T04:24:38;100196.72;;;19.37;60.23
8039;BME280;4062;49.844;8.120;2023-06-24T04:26:50;100202.06;;;19.37;60.48
8039;BME280;4062;49.844;8.120;2023-06-24T04:29:04;100203.78;;;19.38;60.51
8039;BME280;4062;49.844;8.120;2023-06-24T04:31:23;100204.75;;;19.37;60.51
8039;BME280;4062;49.844;8.120;2023-06-24T04:33:35;100197.56;;;19.38;60.47
8039;BME280;4062;49.844;8.120;2023-06-24T04:35:46;100202.06;;;19.37;60.54
8039;BME280;4062;49.844;8.120;2023-06-24T04:40:50;100213.63;;;19.38;60.39
8039;BME280;4062;49.844;8.120;2023-06-24T04:42:51;100221.69;;;19.38;60.40
8039;BME280;4062;49.844;8.120;2023-06-24T04:44:53;100214.56;;;19.37;60.30
8039;BME280;4062;49.844;8.120;2023-06-24T04:47:08;100217.19;;;19.38;60.62
8039;BME280;4062;49.844;8.120;2023-06-24T04:49:12;100206.53;;;19.37;60.48
8039;BME280;4062;49.844;8.120;2023-06-24T04:51:25;100207.44;;;19.37;60.48
8039;BME280;4062;49.844;8.120;2023-06-24T04:53:29;100211.03;;;19.36;60.63
8039;BME280;4062;49.844;8.120;2023-06-24T05:01:16;100223.50;;;19.37;60.57
8039;BME280;4062;49.844;8.120;2023-06-24T05:04:01;100230.56;;;19.38;60.47
8039;BME280;4062;49.844;8.120;2023-06-24T05:07:18;100227.91;;;19.38;60.57
8039;BME280;4062;49.844;8.120;2023-06-24T05:09:32;100227.91;;;19.38;60.52
8039;BME280;4062;49.844;8.120;2023-06-24T05:12:19;100225.22;;;19.38;60.39
8039;BME280;4062;49.844;8.120;2023-06-24T05:14:27;100229.72;;;19.38;60.52
8039;BME280;4062;49.844;8.120;2023-06-24T05:16:34;100231.53;;;19.37;60.31
8039;BME280;4062;49.844;8.120;2023-06-24T05:18:48;100228.88;;;19.37;60.33
8039;BME280;4062;49.844;8.120;2023-06-24T05:21:02;100232.41;;;19.38;60.48
8039;BME280;4062;49.844;8.120;2023-06-24T05:23:14;100228.88;;;19.37;60.54
8039;BME280;4062;49.844;8.120;2023-06-24T05:25:23;100232.41;;;19.38;60.22
8039;BME280;4062;49.844;8.120;2023-06-24T05:28:31;100237.75;;;19.38;60.53
8039;BME280;4062;49.844;8.120;2023-06-24T05:31:03;100232.41;;;19.38;60.54
8039;BME280;4062;49.844;8.120;2023-06-24T05:33:20;100236.00;;;19.37;60.57
8039;BME280;4062;49.844;8.120;2023-06-24T05:35:23;100243.13;;;19.38;60.37
8039;BME280;4062;49.844;8.120;2023-06-24T05:37:24;100243.13;;;19.38;60.31
8039;BME280;4062;49.844;8.120;2023-06-24T05:39:36;100235.06;;;19.38;60.38
8039;BME280;4062;49.844;8.120;2023-06-24T05:41:49;100243.97;;;19.38;60.54
8039;BME280;4062;49.844;8.120;2023-06-24T05:44:08;100237.75;;;19.38;60.47
8039;BME280;4062;49.844;8.120;2023-06-24T05:46:22;100245.78;;;19.38;60.39
8039;BME280;4062;49.844;8.120;2023-06-24T05:48:31;100241.28;;;19.38;60.35
8039;BME280;4062;49.844;8.120;2023-06-24T05:50:40;100247.63;;;19.37;60.34
8039;BME280;4062;49.844;8.120;2023-06-24T05:52:49;100247.63;;;19.37;60.54
8039;BME280;4062;49.844;8.120;2023-06-24T05:55:18;100243.13;;;19.38;60.33
8039;BME280;4062;49.844;8.120;2023-06-24T05:57:44;100242.19;;;19.39;60.40
8039;BME280;4062;49.844;8.120;2023-06-24T06:02:56;100244.84;;;19.39;60.65
8039;BME280;4062;49.844;8.120;2023-06-24T06:05:00;100245.78;;;19.38;60.58
8039;BME280;4062;49.844;8.120;2023-06-24T06:07:03;100245.72;;;19.40;60.38
8039;BME280;4062;49.844;8.120;2023-06-24T06:09:05;100251.06;;;19.40;60.25
8039;BME280;4062;49.844;8.120;2023-06-24T06:11:09;100244.84;;;19.39;60.66
8039;BME280;4062;49.844;8.120;2023-06-24T06:13:11;100250.22;;;19.39;60.17
8039;BME280;4062;49.844;8.120;2023-06-24T06:15:45;100248.38;;;19.40;60.57
8039;BME280;4062;49.844;8.120;2023-06-24T06:17:47;100245.72;;;19.40;60.40
8039;BME280;4062;49.844;8.120;2023-06-24T06:19:48;100245.72;;;19.40;60.54
8039;BME280;4062;49.844;8.120;2023-06-24T06:21:52;100251.06;;;19.40;60.32
8039;BME280;4062;49.844;8.120;2023-06-24T06:23:56;100251.06;;;19.40;60.50
8039;BME280;4062;49.844;8.120;2023-06-24T06:26:01;100252.81;;;19.41;60.31
8039;BME280;4062;49.844;8.120;2023-06-24T06:28:04;100250.13;;;19.41;60.31
8039;BME280;4062;49.844;8.120;2023-06-24T06:30:15;100251.03;;;19.41;60.29
8039;BME280;4062;49.844;8.120;2023-06-24T06:32:17;100247.41;;;19.42;60.30
8039;BME280;4062;49.844;8.120;2023-06-24T06:34:26;100250.94;;;19.43;60.44
8039;BME280;4062;49.844;8.120;2023-06-24T06:36:28;100249.91;;;19.45;60.28
8039;BME280;4062;49.844;8.120;2023-06-24T06:38:29;100248.97;;;19.46;60.20
8039;BME280;4062;49.844;8.120;2023-06-24T06:40:31;100247.97;;;19.49;60.26
8039;BME280;4062;49.844;8.120;2023-06-24T06:42:32;100243.47;;;19.49;60.28
8039;BME280;4062;49.844;8.120;2023-06-24T06:44:33;100243.41;;;19.51;60.17
8039;BME280;4062;49.844;8.120;2023-06-24T06:46:35;100240.72;;;19.51;60.11
8039;BME280;4062;49.844;8.120;2023-06-24T06:48:36;100236.25;;;19.51;60.22
8039;BME280;4062;49.844;8.120;2023-06-24T06:50:37;100241.53;;;19.53;59.85
8039;BME280;4062;49.844;8.120;2023-06-24T06:52:48;100237.91;;;19.54;60.11
8039;BME280;4062;49.844;8.120;2023-06-24T06:54:50;100236.06;;;19.55;60.28
8039;BME280;4062;49.844;8.120;2023-06-24T06:56:53;100237.72;;;19.57;59.87
8039;BME280;4062;49.844;8.120;2023-06-24T06:58:55;100237.59;;;19.60;60.02
8039;BME280;4062;49.844;8.120;2023-06-24T07:01:04;100241.31;;;19.58;59.61
8039;BME280;4062;49.844;8.120;2023-06-24T07:03:07;100241.13;;;19.61;59.72
8039;BME280;4062;49.844;8.120;2023-06-24T07:05:08;100243.81;;;19.61;59.72
8039;BME280;4062;49.844;8.120;2023-06-24T07:07:13;100237.59;;;19.60;60.00
8039;BME280;4062;49.844;8.120;2023-06-24T07:09:15;100241.13;;;19.61;59.77
8039;BME280;4062;49.844;8.120;2023-06-24T07:11:16;100241.13;;;19.61;60.00
8039;BME280;4062;49.844;8.120;2023-06-24T07:13:18;100243.81;;;19.61;59.74
8039;BME280;4062;49.844;8.120;2023-06-24T07:15:31;100241.13;;;19.61;59.95
8039;BME280;4062;49.844;8.120;2023-06-24T07:17:39;100237.59;;;19.60;59.91
8039;BME280;4062;49.844;8.120;2023-06-24T07:19:40;100233.09;;;19.61;59.95
8039;BME280;4062;49.844;8.120;2023-06-24T07:21:42;100242.00;;;19.61;59.70
8039;BME280;4062;49.844;8.120;2023-06-24T07:23:43;100233.09;;;19.61;59.71
8039;BME280;4062;49.844;8.120;2023-06-24T07:25:44;100228.63;;;19.61;59.86
8039;BME280;4062;49.844;8.120;2023-06-24T07:27:46;100233.09;;;19.61;60.06
8039;BME280;4062;49.844;8.120;2023-06-24T07:29:47;100242.00;;;19.61;59.93
8039;BME280;4062;49.844;8.120;2023-06-24T07:31:54;100239.34;;;19.61;59.82
8039;BME280;4062;49.844;8.120;2023-06-24T07:33:56;100236.66;;;19.61;59.70
8039;BME280;4062;49.844;8.120;2023-06-24T07:36:00;100226.78;;;19.62;59.78
8039;BME280;4062;49.844;8.120;2023-06-24T07:38:04;100233.03;;;19.62;59.77
8039;BME280;4062;49.844;8.120;2023-06-24T07:40:08;100232.16;;;19.62;60.03
8039;BME280;4062;49.844;8.120;2023-06-24T07:42:10;100234.84;;;19.62;59.92
8039;BME280;4062;49.844;8.120;2023-06-24T07:44:14;100238.41;;;19.62;59.88
8039;BME280;4062;49.844;8.120;2023-06-24T07:46:15;100235.72;;;19.62;59.94
8039;BME280;4062;49.844;8.120;2023-06-24T07:48:17;100242.88;;;19.62;60.01
8039;BME280;4062;49.844;8.120;2023-06-24T07:50:19;100235.78;;;19.61;60.12
8039;BME280;4062;49.844;8.120;2023-06-24T07:52:20;100236.66;;;19.61;59.98
8039;BME280;4062;49.844;8.120;2023-06-24T07:54:22;100239.34;;;19.61;59.93
8039;BME280;4062;49.844;8.120;2023-06-24T07:56:23;100233.97;;;19.61;60.10
8039;BME280;4062;49.844;8.120;2023-06-24T07:58:24;100228.63;;;19.61;59.96
8039;BME280;4062;49.844;8.120;2023-06-24T08:00:25;100233.03;;;19.62;59.97
8039;BME280;4062;49.844;8.120;2023-06-24T08:02:27;100231.22;;;19.63;60.01
8039;BME280;4062;49.844;8.120;2023-06-24T08:04:28;100235.72;;;19.62;59.87
8039;BME280;4062;49.844;8.120;2023-06-24T08:06:29;100236.66;;;19.61;59.99
8039;BME280;4062;49.844;8.120;2023-06-24T08:08:31;100233.09;;;19.61;60.27
8039;BME280;4062;49.844;8.120;2023-06-24T08:10:32;100233.03;;;19.62;59.92
8039;BME280;4062;49.844;8.120;2023-06-24T08:12:34;100231.28;;;19.61;59.68
8039;BME280;4062;49.844;8.120;2023-06-24T08:14:40;100233.09;;;19.61;59.77
8039;BME280;4062;49.844;8.120;2023-06-24T08:16:42;100233.09;;;19.61;59.93
8039;BME280;4062;49.844;8.120;2023-06-24T08:18:46;100230.41;;;19.61;60.03
8039;BME280;4062;49.844;8.120;2023-06-24T08:20:51;100229.56;;;19.60;60.24
8039;BME280;4062;49.844;8.120;2023-06-24T08:22:54;100229.56;;;19.60;60.03
8039;BME280;4062;49.844;8.120;2023-06-24T08:24:59;100226.88;;;19.60;59.87
8039;BME280;4062;49.844;8.120;2023-06-24T08:27:02;100215.31;;;19.60;60.10
8039;BME280;4062;49.844;8.120;2023-06-24T08:29:04;100220.66;;;19.60;60.04
8039;BME280;4062;49.844;8.120;2023-06-24T08:31:05;100210.00;;;19.58;60.22
8039;BME280;4062;49.844;8.120;2023-06-24T08:33:09;100214.41;;;19.59;60.18
8039;BME280;4062;49.844;8.120;2023-06-24T08:35:13;100218.03;;;19.58;60.03
8039;BME280;4062;49.844;8.120;2023-06-24T08:37:14;100213.56;;;19.59;60.01
8039;BME280;4062;49.844;8.120;2023-06-24T08:39:16;100221.59;;;19.59;60.38
8039;BME280;4062;49.844;8.120;2023-06-24T08:41:17;100217.09;;;19.59;59.92
8039;BME280;4062;49.844;8.120;2023-06-24T08:43:18;100209.06;;;19.59;60.03
8039;BME280;4062;49.844;8.120;2023-06-24T08:45:20;100207.31;;;19.58;60.20
8039;BME280;4062;49.844;8.120;2023-06-24T08:47:25;100213.47;;;19.60;59.97
8039;BME280;4062;49.844;8.120;2023-06-24T08:49:31;100207.25;;;19.60;59.86
8039;BME280;4062;49.844;8.120;2023-06-24T08:51:39;100206.38;;;19.59;60.32
8039;BME280;4062;49.844;8.120;2023-06-24T08:53:43;100212.63;;;19.60;60.00
8039;BME280;4062;49.844;8.120;2023-06-24T08:55:46;100212.53;;;19.61;60.06
8039;BME280;4062;49.844;8.120;2023-06-24T08:57:50;100217.91;;;19.61;59.88
8039;BME280;4062;49.844;8.120;2023-06-24T08:59:53;100215.22;;;19.61;60.24
8039;BME280;4062;49.844;8.120;2023-06-24T09:01:54;100215.22;;;19.61;59.89
8039;BME280;4062;49.844;8.120;2023-06-24T09:03:56;100217.81;;;19.63;60.13
8039;BME280;4062;49.844;8.120;2023-06-24T09:05:57;100211.59;;;19.62;60.02
8039;BME280;4062;49.844;8.120;2023-06-24T09:07:59;100214.28;;;19.62;59.82
8039;BME280;4062;49.844;8.120;2023-06-24T09:10:00;100208.91;;;19.62;60.08
8039;BME280;4062;49.844;8.120;2023-06-24T09:12:02;100214.28;;;19.62;59.94
8039;BME280;4062;49.844;8.120;2023-06-24T09:14:03;100208.91;;;19.62;59.96
8039;BME280;4062;49.844;8.120;2023-06-24T09:16:14;100209.75;;;19.63;59.98
8039;BME280;4062;49.844;8.120;2023-06-24T09:18:17;100204.41;;;19.63;60.05
8039;BME280;4062;49.844;8.120;2023-06-24T09:20:20;100197.31;;;19.62;59.97
8039;BME280;4062;49.844;8.120;2023-06-24T09:22:28;100192.81;;;19.62;60.25
8039;BME280;4062;49.844;8.120;2023-06-24T09:25:00;100185.72;;;19.61;60.24
8039;BME280;4062;49.844;8.120;2023-06-24T09:30:29;100184.00;;;19.60;60.27
8039;BME280;4062;49.844;8.120;2023-06-24T09:32:51;100178.63;;;19.60;60.08
8039;BME280;4062;49.844;8.120;2023-06-24T09:35:02;100188.41;;;19.61;60.18
8039;BME280;4062;49.844;8.120;2023-06-24T09:37:26;100183.03;;;19.61;60.10
8039;BME280;4062;49.844;8.120;2023-06-24T09:39:43;100176.81;;;19.61;59.93
8039;BME280;4062;49.844;8.120;2023-06-24T09:41:55;100175.09;;;19.60;60.21
8039;BME280;4062;49.844;8.120;2023-06-24T09:44:19;100175.00;;;19.61;59.90
8039;BME280;4062;49.844;8.120;2023-06-24T09:46:34;100168.75;;;19.61;60.02
8039;BME280;4062;49.844;8.120;2023-06-24T09:48:54;100169.66;;;19.61;59.90
8039;BME280;4062;49.844;8.120;2023-06-24T09:51:19;100161.59;;;19.61;59.99
8039;BME280;4062;49.844;8.120;2023-06-24T09:56:07;100164.19;;;19.63;60.08
8039;BME280;4062;49.844;8.120;2023-06-24T10:01:13;100157.97;;;19.62;60.16
8039;BME280;4062;49.844;8.120;2023-06-24T10:03:31;100158.03;;;19.61;59.98
8039;BME280;4062;49.844;8.120;2023-06-24T10:05:57;100150.97;;;19.60;60.02
8039;BME280;4062;49.844;8.120;2023-06-24T10:08:22;100153.66;;;19.60;60.09
8039;BME280;4062;49.844;8.120;2023-06-24T10:10:47;100156.31;;;19.60;60.28
8039;BME280;4062;49.844;8.120;2023-06-24T10:16:10;100141.00;;;19.62;60.18
8039;BME280;4062;49.844;8.120;2023-06-24T10:19:27;100135.66;;;19.62;60.23
8039;BME280;4062;49.844;8.120;2023-06-24T10:22:45;100133.84;;;19.62;59.98
8039;BME280;4062;49.844;8.120;2023-06-24T10:27:56;100133.91;;;19.61;60.09
8039;BME280;4062;49.844;8.120;2023-06-24T10:33:56;100126.75;;;19.61;60.12
8039;BME280;4062;49.844;8.120;2023-06-24T10:40:05;100120.59;;;19.59;60.42
8039;BME280;4062;49.844;8.120;2023-06-24T10:42:47;100122.34;;;19.60;60.36
8039;BME280;4062;49.844;8.120;2023-06-24T10:49:03;100112.56;;;19.59;59.88
8039;BME280;4062;49.844;8.120;2023-06-24T10:51:32;100113.50;;;19.58;60.23
8039;BME280;4062;49.844;8.120;2023-06-24T11:05:34;100097.41;;;19.58;60.27
8039;BME280;4062;49.844;8.120;2023-06-24T11:08:52;100101.84;;;19.59;60.24
8039;BME280;4062;49.844;8.120;2023-06-24T11:12:32;100087.56;;;19.59;60.29
8039;BME280;4062;49.844;8.120;2023-06-24T11:15:31;100090.25;;;19.59;60.05
8039;BME280;4062;49.844;8.120;2023-06-24T11:21:30;100084.91;;;19.59;60.12
8039;BME280;4062;49.844;8.120;2023-06-24T11:23:34;100078.66;;;19.58;59.97
8039;BME280;4062;49.844;8.120;2023-06-24T11:25:44;100082.22;;;19.59;60.01
8039;BME280;4062;49.844;8.120;2023-06-24T11:27:46;100067.94;;;19.58;60.04
8039;BME280;4062;49.844;8.120;2023-06-24T11:29:48;100077.78;;;19.58;60.14
8039;BME280;4062;49.844;8.120;2023-06-24T11:31:50;100064.41;;;19.58;60.05
8039;BME280;4062;49.844;8.120;2023-06-24T11:33:52;100067.06;;;19.58;60.32
8039;BME280;4062;49.844;8.120;2023-06-24T11:35:53;100067.06;;;19.58;59.91
8039;BME280;4062;49.844;8.120;2023-06-24T11:37:58;100066.19;;;19.57;60.20
8039;BME280;4062;49.844;8.120;2023-06-24T11:40:03;100069.75;;;19.58;59.96
8039;BME280;4062;49.844;8.120;2023-06-24T11:42:11;100066.28;;;19.56;60.31
8039;BME280;4062;49.844;8.120;2023-06-24T11:44:12;100068.97;;;19.56;60.13
8039;BME280;4062;49.844;8.120;2023-06-24T11:46:25;100069.84;;;19.56;60.06
8039;BME280;4062;49.844;8.120;2023-06-24T11:48:38;100061.81;;;19.56;60.11
8039;BME280;4062;49.844;8.120;2023-06-24T11:50:40;100066.28;;;19.56;60.06
8039;BME280;4062;49.844;8.120;2023-06-24T11:52:46;100062.66;;;19.57;60.24
8039;BME280;4062;49.844;8.120;2023-06-24T11:54:51;100053.75;;;19.56;60.31
8039;BME280;4062;49.844;8.120;2023-06-24T11:56:53;100062.75;;;19.55;60.23
8039;BME280;4062;49.844;8.120;2023-06-24T11:58:54;100054.69;;;19.55;60.29
8039;BME280;4062;49.844;8.120;2023-06-24T12:00:56;100047.59;;;19.54;60.05
8039;BME280;4062;49.844;8.120;2023-06-24T12:03:00;100053.81;;;19.55;60.13
8039;BME280;4062;49.844;8.120;2023-06-24T12:05:03;100053.81;;;19.55;60.41
8039;BME280;4062;49.844;8.120;2023-06-24T12:07:04;100052.03;;;19.55;60.44
8039;BME280;4062;49.844;8.120;2023-06-24T12:09:06;100044.94;;;19.54;60.20
8039;BME280;4062;49.844;8.120;2023-06-24T12:11:08;100044.94;;;19.54;60.38
8039;BME280;4062;49.844;8.120;2023-06-24T12:13:09;100044.94;;;19.54;60.23
8039;BME280;4062;49.844;8.120;2023-06-24T12:15:14;100043.09;;;19.55;60.42
8039;BME280;4062;49.844;8.120;2023-06-24T12:17:15;100042.25;;;19.54;60.17
8039;BME280;4062;49.844;8.120;2023-06-24T12:19:16;100038.69;;;19.53;60.35
8039;BME280;4062;49.844;8.120;2023-06-24T12:21:18;100043.97;;;19.55;60.50
8039;BME280;4062;49.844;8.120;2023-06-24T12:23:20;100039.56;;;19.54;60.42
8039;BME280;4062;49.844;8.120;2023-06-24T12:25:21;100038.69;;;19.53;60.52
8039;BME280;4062;49.844;8.120;2023-06-24T12:27:23;100039.56;;;19.54;60.32
8039;BME280;4062;49.844;8.120;2023-06-24T12:29:24;100028.84;;;19.54;60.33
8039;BME280;4062;49.844;8.120;2023-06-24T12:31:25;100031.53;;;19.54;60.32
8039;BME280;4062;49.844;8.120;2023-06-24T12:33:26;100025.28;;;19.53;60.15
8039;BME280;4062;49.844;8.120;2023-06-24T12:35:28;100019.91;;;19.53;60.25
8039;BME280;4062;49.844;8.120;2023-06-24T12:37:33;100019.91;;;19.53;60.23
8039;BME280;4062;49.844;8.120;2023-06-24T12:39:34;100012.75;;;19.54;60.04
8039;BME280;4062;49.844;8.120;2023-06-24T12:41:36;100012.75;;;19.54;60.00